ETH3721 EHBK-OMSJ
Flight info
| Callsign | ETH3721 |
|---|---|
| Flight time | N/A |
| Altitude | 23000 |
| Route | LNO DCT ARCKY L607 ROPUV/N0482F330 L607 UBIDU L984 RUDUS DCT BOMBI T104 WLD M867 RADIZ DCT LBL DCT IDASI DCT POD DCT PINDO UL607 ATV DCT MIL/N0487F350 DCT PAXIS Y707 OBRAN L321 REXUM M872 WEJ DCT HLF DCT MODIV DCT SIBLI DCT GESOR DCT JBL DCT OBTAR DCT TOMSO DCT EMOTA DCT GONVI |
| Aircraft | MD11/H-SDE1E2E3FGHIJ2J3J4J5M1RWXY/LB1D1 |
Departure
| Time | N/A |
|---|---|
| Airport | Maastricht Aachen Airport (EHBK) |
Arrival
| Time | 2026-05-08 18:23 |
|---|---|
| Airport | Sharjah International Airport (OMSJ) |
| Time | Latitude | Longitude | Altitude | Speed | Heading |
|---|---|---|---|---|---|
| 2026-05-08 13:46 | 40.07105 | 21.42631 | 35032 ft | 504 kts | 143° |
| 2026-05-08 13:46 | 40.04467 | 21.45645 | 35031 ft | 504 kts | 143° |
| 2026-05-08 13:46 | 39.99193 | 21.51662 | 35030 ft | 504 kts | 143° |
| 2026-05-08 13:47 | 39.93904 | 21.57657 | 35026 ft | 504 kts | 143° |
| 2026-05-08 13:47 | 39.88592 | 21.63636 | 35025 ft | 506 kts | 143° |
| 2026-05-08 13:48 | 39.84158 | 21.68630 | 35028 ft | 507 kts | 143° |
| 2026-05-08 13:48 | 39.78826 | 21.74637 | 35031 ft | 507 kts | 143° |
| 2026-05-08 13:49 | 39.73489 | 21.80639 | 35008 ft | 507 kts | 144° |
| 2026-05-08 13:49 | 39.68150 | 21.86630 | 35025 ft | 507 kts | 144° |
| 2026-05-08 13:50 | 39.62801 | 21.92617 | 35022 ft | 510 kts | 145° |
| 2026-05-08 13:50 | 39.57413 | 21.98631 | 35027 ft | 512 kts | 145° |
| 2026-05-08 13:51 | 39.52013 | 22.04652 | 35027 ft | 512 kts | 145° |
| 2026-05-08 13:51 | 39.46614 | 22.10659 | 35019 ft | 512 kts | 145° |
| 2026-05-08 13:52 | 39.41205 | 22.16663 | 35013 ft | 513 kts | 146° |
| 2026-05-08 13:52 | 39.35788 | 22.22662 | 35001 ft | 514 kts | 146° |
| 2026-05-08 13:53 | 39.30335 | 22.28662 | 35014 ft | 515 kts | 146° |
| 2026-05-08 13:53 | 39.24874 | 22.34653 | 35014 ft | 515 kts | 146° |
| 2026-05-08 13:54 | 39.19418 | 22.40648 | 35013 ft | 515 kts | 146° |
| 2026-05-08 13:54 | 39.13961 | 22.46642 | 34996 ft | 515 kts | 146° |
| 2026-05-08 13:55 | 39.08512 | 22.52616 | 35017 ft | 515 kts | 146° |
| 2026-05-08 13:56 | 39.00315 | 22.61573 | 35030 ft | 515 kts | 146° |
| 2026-05-08 13:56 | 38.94844 | 22.67536 | 35028 ft | 516 kts | 146° |
| 2026-05-08 13:57 | 38.89374 | 22.73486 | 35025 ft | 515 kts | 146° |
| 2026-05-08 13:57 | 38.83902 | 22.79426 | 35012 ft | 515 kts | 146° |
| 2026-05-08 13:58 | 38.78432 | 22.85352 | 35020 ft | 514 kts | 146° |
| 2026-05-08 13:58 | 38.72989 | 22.91235 | 35022 ft | 515 kts | 146° |
| 2026-05-08 13:59 | 38.67546 | 22.97087 | 35015 ft | 514 kts | 146° |
| 2026-05-08 13:59 | 38.62056 | 23.02963 | 35018 ft | 516 kts | 146° |
| 2026-05-08 14:00 | 38.56560 | 23.08856 | 35017 ft | 515 kts | 146° |
| 2026-05-08 14:00 | 38.51066 | 23.14745 | 35018 ft | 518 kts | 146° |
| 2026-05-08 14:01 | 38.45532 | 23.20664 | 35022 ft | 519 kts | 146° |
| 2026-05-08 14:01 | 38.39996 | 23.26577 | 35012 ft | 519 kts | 146° |
| 2026-05-08 14:02 | 38.34456 | 23.32480 | 35021 ft | 519 kts | 146° |
| 2026-05-08 14:02 | 38.28917 | 23.38369 | 35019 ft | 519 kts | 146° |
| 2026-05-08 14:03 | 38.23373 | 23.44251 | 35029 ft | 519 kts | 147° |
| 2026-05-08 14:03 | 38.17828 | 23.50121 | 35049 ft | 519 kts | 147° |
| 2026-05-08 14:04 | 38.12276 | 23.55975 | 35039 ft | 518 kts | 147° |
| 2026-05-08 14:04 | 38.06732 | 23.61827 | 35049 ft | 518 kts | 147° |
| 2026-05-08 14:05 | 38.01190 | 23.67681 | 35049 ft | 518 kts | 147° |
| 2026-05-08 14:05 | 37.95640 | 23.73534 | 35070 ft | 519 kts | 147° |
| 2026-05-08 14:06 | 37.90026 | 23.79277 | 35070 ft | 516 kts | 152° |
| 2026-05-08 14:06 | 37.83880 | 23.83753 | 35073 ft | 507 kts | 160° |
| 2026-05-08 14:07 | 37.77541 | 23.87627 | 35071 ft | 506 kts | 161° |
| 2026-05-08 14:07 | 37.71213 | 23.91537 | 35063 ft | 506 kts | 161° |
| 2026-05-08 14:08 | 37.64924 | 23.95527 | 35067 ft | 506 kts | 160° |
| 2026-05-08 14:08 | 37.58650 | 23.99537 | 35066 ft | 506 kts | 160° |
| 2026-05-08 14:09 | 37.52374 | 24.03540 | 35072 ft | 506 kts | 160° |
| 2026-05-08 14:09 | 37.46094 | 24.07533 | 35058 ft | 504 kts | 160° |
| 2026-05-08 14:10 | 37.39835 | 24.11504 | 35067 ft | 504 kts | 160° |
| 2026-05-08 14:10 | 37.33579 | 24.15465 | 35077 ft | 503 kts | 160° |
| 2026-05-08 14:11 | 37.27321 | 24.19419 | 35077 ft | 503 kts | 160° |
| 2026-05-08 14:11 | 37.21065 | 24.23365 | 35063 ft | 504 kts | 160° |
| 2026-05-08 14:12 | 37.14793 | 24.27310 | 35081 ft | 504 kts | 160° |
| 2026-05-08 14:12 | 37.08520 | 24.31233 | 35080 ft | 504 kts | 160° |
| 2026-05-08 14:13 | 37.02243 | 24.35160 | 35079 ft | 504 kts | 160° |
| 2026-05-08 14:13 | 36.95998 | 24.39069 | 35057 ft | 504 kts | 160° |
| 2026-05-08 14:14 | 36.89712 | 24.42998 | 35085 ft | 505 kts | 161° |
| 2026-05-08 14:14 | 36.83422 | 24.46922 | 35086 ft | 505 kts | 161° |
| 2026-05-08 14:15 | 36.77126 | 24.50843 | 35087 ft | 505 kts | 161° |
| 2026-05-08 14:15 | 36.70885 | 24.54918 | 35083 ft | 512 kts | 154° |
| 2026-05-08 14:16 | 36.65225 | 24.60361 | 35091 ft | 522 kts | 145° |
| 2026-05-08 14:16 | 36.59799 | 24.66384 | 35094 ft | 522 kts | 144° |
| 2026-05-08 14:17 | 36.54310 | 24.72381 | 35096 ft | 521 kts | 146° |
| 2026-05-08 14:17 | 36.48843 | 24.78192 | 35097 ft | 521 kts | 146° |
| 2026-05-08 14:18 | 36.43318 | 24.84007 | 35100 ft | 521 kts | 146° |
| 2026-05-08 14:18 | 36.37783 | 24.89823 | 35097 ft | 522 kts | 146° |
| 2026-05-08 14:19 | 36.32239 | 24.95646 | 35099 ft | 522 kts | 146° |
| 2026-05-08 14:19 | 36.26695 | 25.01462 | 35101 ft | 522 kts | 146° |
| 2026-05-08 14:20 | 36.21145 | 25.07271 | 35095 ft | 522 kts | 146° |
| 2026-05-08 14:20 | 36.15591 | 25.13073 | 35099 ft | 522 kts | 146° |
| 2026-05-08 14:21 | 36.10037 | 25.18863 | 35099 ft | 523 kts | 146° |
| 2026-05-08 14:21 | 36.04455 | 25.24653 | 35102 ft | 524 kts | 146° |
| 2026-05-08 14:22 | 35.98871 | 25.30425 | 35105 ft | 524 kts | 146° |
| 2026-05-08 14:22 | 35.93283 | 25.36209 | 35105 ft | 524 kts | 146° |
| 2026-05-08 14:23 | 35.87694 | 25.41992 | 35111 ft | 525 kts | 146° |
| 2026-05-08 14:23 | 35.82098 | 25.47773 | 35104 ft | 525 kts | 146° |
| 2026-05-08 14:24 | 35.76481 | 25.53561 | 35117 ft | 527 kts | 146° |
| 2026-05-08 14:24 | 35.70860 | 25.59345 | 35118 ft | 527 kts | 146° |
| 2026-05-08 14:25 | 35.65234 | 25.65122 | 35120 ft | 527 kts | 146° |
| 2026-05-08 14:25 | 35.59637 | 25.70858 | 35127 ft | 528 kts | 146° |
| 2026-05-08 14:26 | 35.53996 | 25.76628 | 35124 ft | 528 kts | 146° |
| 2026-05-08 14:26 | 35.48353 | 25.82389 | 35129 ft | 528 kts | 146° |
| 2026-05-08 14:27 | 35.42703 | 25.88141 | 35128 ft | 528 kts | 146° |
| 2026-05-08 14:27 | 35.37039 | 25.93871 | 35129 ft | 528 kts | 146° |
| 2026-05-08 14:28 | 35.31379 | 25.99601 | 35132 ft | 528 kts | 146° |
| 2026-05-08 14:28 | 35.25743 | 26.05309 | 35132 ft | 528 kts | 146° |
| 2026-05-08 14:29 | 35.20080 | 26.11039 | 35134 ft | 528 kts | 146° |
| 2026-05-08 14:29 | 35.14414 | 26.16759 | 35134 ft | 528 kts | 146° |
| 2026-05-08 14:30 | 35.08746 | 26.22471 | 35140 ft | 528 kts | 146° |
| 2026-05-08 14:30 | 35.03071 | 26.28177 | 35134 ft | 528 kts | 146° |
| 2026-05-08 14:31 | 34.97405 | 26.33865 | 35135 ft | 528 kts | 146° |
| 2026-05-08 14:31 | 34.91736 | 26.39545 | 35128 ft | 527 kts | 146° |
| 2026-05-08 14:32 | 34.83237 | 26.48041 | 35132 ft | 527 kts | 146° |
| 2026-05-08 14:32 | 34.77566 | 26.53688 | 35130 ft | 527 kts | 146° |
| 2026-05-08 14:33 | 34.71925 | 26.59274 | 35130 ft | 527 kts | 146° |
| 2026-05-08 14:33 | 34.66247 | 26.64904 | 35128 ft | 527 kts | 146° |
| 2026-05-08 14:34 | 34.60583 | 26.70521 | 35125 ft | 525 kts | 145° |
| 2026-05-08 14:34 | 34.55843 | 26.75216 | 35136 ft | 525 kts | 145° |
| 2026-05-08 14:35 | 34.50188 | 26.80807 | 35135 ft | 525 kts | 145° |
| 2026-05-08 14:35 | 34.44520 | 26.86399 | 35135 ft | 525 kts | 146° |
| 2026-05-08 14:36 | 34.38893 | 26.91942 | 35141 ft | 525 kts | 145° |
| 2026-05-08 14:36 | 34.33222 | 26.97517 | 35133 ft | 525 kts | 145° |
| 2026-05-08 14:37 | 34.27549 | 27.03085 | 35148 ft | 525 kts | 145° |
| 2026-05-08 14:37 | 34.21878 | 27.08640 | 35144 ft | 525 kts | 145° |
| 2026-05-08 14:38 | 34.16202 | 27.14191 | 35145 ft | 525 kts | 145° |
| 2026-05-08 14:38 | 34.10518 | 27.19718 | 35147 ft | 525 kts | 145° |
| 2026-05-08 14:39 | 34.04819 | 27.25248 | 35145 ft | 525 kts | 145° |
| 2026-05-08 14:39 | 33.99064 | 27.30632 | 35147 ft | 521 kts | 152° |
| 2026-05-08 14:40 | 33.92686 | 27.34596 | 35149 ft | 513 kts | 162° |
| 2026-05-08 14:40 | 33.86098 | 27.37886 | 35149 ft | 512 kts | 163° |
| 2026-05-08 14:41 | 33.79527 | 27.41227 | 35148 ft | 513 kts | 162° |
| 2026-05-08 14:41 | 33.72981 | 27.44678 | 35145 ft | 514 kts | 161° |
| 2026-05-08 14:42 | 33.66447 | 27.48159 | 35151 ft | 514 kts | 161° |
| 2026-05-08 14:42 | 33.59891 | 27.51643 | 35147 ft | 515 kts | 161° |
| 2026-05-08 14:43 | 33.53331 | 27.55118 | 35148 ft | 516 kts | 161° |
| 2026-05-08 14:43 | 33.46804 | 27.58568 | 35136 ft | 515 kts | 161° |
| 2026-05-08 14:44 | 33.40251 | 27.62026 | 35143 ft | 515 kts | 161° |
| 2026-05-08 14:44 | 33.33695 | 27.65479 | 35144 ft | 515 kts | 161° |
| 2026-05-08 14:45 | 33.27131 | 27.68931 | 35140 ft | 515 kts | 161° |
| 2026-05-08 14:45 | 33.20576 | 27.72368 | 35135 ft | 515 kts | 161° |
| 2026-05-08 14:46 | 33.14005 | 27.75798 | 35137 ft | 516 kts | 161° |
| 2026-05-08 14:46 | 33.07474 | 27.79210 | 35138 ft | 516 kts | 161° |
| 2026-05-08 14:47 | 33.00901 | 27.82645 | 35137 ft | 516 kts | 161° |
| 2026-05-08 14:47 | 32.94326 | 27.86075 | 35121 ft | 516 kts | 161° |
| 2026-05-08 14:48 | 32.87747 | 27.89501 | 35142 ft | 517 kts | 161° |
| 2026-05-08 14:48 | 32.81158 | 27.92927 | 35142 ft | 517 kts | 161° |
| 2026-05-08 14:49 | 32.74575 | 27.96345 | 35141 ft | 516 kts | 161° |
| 2026-05-08 14:49 | 32.67990 | 27.99757 | 35140 ft | 516 kts | 161° |
| 2026-05-08 14:50 | 32.61406 | 28.03164 | 35139 ft | 516 kts | 161° |
| 2026-05-08 14:50 | 32.54815 | 28.06568 | 35145 ft | 516 kts | 161° |
| 2026-05-08 14:51 | 32.48221 | 28.09968 | 35139 ft | 518 kts | 161° |
| 2026-05-08 14:51 | 32.41612 | 28.13361 | 35139 ft | 518 kts | 161° |
| 2026-05-08 14:52 | 32.31711 | 28.18437 | 35138 ft | 516 kts | 161° |
| 2026-05-08 14:53 | 32.25125 | 28.21813 | 35139 ft | 516 kts | 161° |
| 2026-05-08 14:53 | 32.18538 | 28.25187 | 35137 ft | 516 kts | 161° |
| 2026-05-08 14:54 | 32.11948 | 28.28556 | 35129 ft | 516 kts | 161° |
| 2026-05-08 14:54 | 32.05347 | 28.31924 | 35139 ft | 517 kts | 161° |
| 2026-05-08 14:55 | 31.98736 | 28.35293 | 35146 ft | 517 kts | 161° |
| 2026-05-08 14:55 | 31.92172 | 28.38633 | 35131 ft | 518 kts | 161° |
| 2026-05-08 14:56 | 31.85551 | 28.41993 | 35126 ft | 518 kts | 161° |
| 2026-05-08 14:56 | 31.78914 | 28.45326 | 35133 ft | 519 kts | 161° |
| 2026-05-08 14:57 | 31.72279 | 28.48651 | 35135 ft | 519 kts | 161° |
| 2026-05-08 14:57 | 31.65642 | 28.51977 | 35133 ft | 518 kts | 161° |
| 2026-05-08 14:58 | 31.59007 | 28.55299 | 35132 ft | 518 kts | 161° |
| 2026-05-08 14:58 | 31.52405 | 28.58603 | 35129 ft | 518 kts | 161° |
| 2026-05-08 14:59 | 31.45772 | 28.61921 | 35131 ft | 518 kts | 161° |
| 2026-05-08 14:59 | 31.35821 | 28.66889 | 35128 ft | 518 kts | 161° |
| 2026-05-08 15:00 | 31.29191 | 28.70193 | 35121 ft | 518 kts | 161° |
| 2026-05-08 15:00 | 31.22573 | 28.73486 | 35132 ft | 516 kts | 161° |
| 2026-05-08 15:01 | 31.15964 | 28.76768 | 35126 ft | 516 kts | 161° |
| 2026-05-08 15:01 | 31.09352 | 28.80047 | 35125 ft | 516 kts | 161° |
| 2026-05-08 15:02 | 31.02747 | 28.83319 | 35106 ft | 516 kts | 161° |
| 2026-05-08 15:02 | 30.96153 | 28.86579 | 35114 ft | 514 kts | 161° |
| 2026-05-08 15:03 | 30.89575 | 28.89827 | 35122 ft | 513 kts | 161° |
| 2026-05-08 15:03 | 30.83000 | 28.93063 | 35109 ft | 513 kts | 161° |
| 2026-05-08 15:04 | 30.76462 | 28.96269 | 35115 ft | 513 kts | 161° |
| 2026-05-08 15:04 | 30.69860 | 28.99508 | 35095 ft | 516 kts | 160° |
| 2026-05-08 15:05 | 30.63239 | 29.02758 | 35089 ft | 517 kts | 160° |
| 2026-05-08 15:05 | 30.56617 | 29.06005 | 35086 ft | 516 kts | 160° |
| 2026-05-08 15:06 | 30.50057 | 29.09416 | 35087 ft | 519 kts | 153° |
| 2026-05-08 15:06 | 30.44297 | 29.14505 | 35074 ft | 524 kts | 135° |
| 2026-05-08 15:07 | 30.39516 | 29.20881 | 35080 ft | 524 kts | 131° |
| 2026-05-08 15:07 | 30.34723 | 29.27234 | 35067 ft | 524 kts | 133° |
| 2026-05-08 15:08 | 30.30574 | 29.32340 | 35061 ft | 523 kts | 135° |
| 2026-05-08 15:08 | 30.24643 | 29.39399 | 35055 ft | 523 kts | 135° |
| 2026-05-08 15:09 | 30.19562 | 29.45432 | 35058 ft | 523 kts | 135° |
| 2026-05-08 15:09 | 30.14492 | 29.51467 | 35055 ft | 523 kts | 135° |
| 2026-05-08 15:10 | 30.09420 | 29.57503 | 35047 ft | 523 kts | 135° |
| 2026-05-08 15:10 | 30.04358 | 29.63519 | 35057 ft | 522 kts | 135° |
| 2026-05-08 15:11 | 29.99299 | 29.69522 | 35056 ft | 522 kts | 135° |
| 2026-05-08 15:11 | 29.94235 | 29.75519 | 35056 ft | 522 kts | 135° |
| 2026-05-08 15:12 | 29.89170 | 29.81508 | 35056 ft | 522 kts | 135° |
| 2026-05-08 15:12 | 29.84097 | 29.87498 | 35049 ft | 522 kts | 134° |
| 2026-05-08 15:13 | 29.79020 | 29.93483 | 35042 ft | 523 kts | 135° |
| 2026-05-08 15:13 | 29.73960 | 29.99439 | 35049 ft | 523 kts | 135° |
| 2026-05-08 15:14 | 29.68864 | 30.05403 | 35062 ft | 523 kts | 135° |
| 2026-05-08 15:14 | 29.63768 | 30.11363 | 35055 ft | 523 kts | 135° |
| 2026-05-08 15:15 | 29.58670 | 30.17331 | 35054 ft | 524 kts | 134° |
| 2026-05-08 15:15 | 29.53599 | 30.23265 | 35045 ft | 524 kts | 134° |
| 2026-05-08 15:16 | 29.48491 | 30.29231 | 35044 ft | 524 kts | 135° |
| 2026-05-08 15:16 | 29.43385 | 30.35187 | 35047 ft | 524 kts | 135° |
| 2026-05-08 15:17 | 29.38286 | 30.41154 | 35042 ft | 523 kts | 134° |
| 2026-05-08 15:17 | 29.33241 | 30.47159 | 35047 ft | 523 kts | 134° |
| 2026-05-08 15:18 | 29.28210 | 30.53176 | 35056 ft | 523 kts | 134° |
| 2026-05-08 15:18 | 29.23172 | 30.59188 | 35041 ft | 523 kts | 134° |
| 2026-05-08 15:19 | 29.18132 | 30.65187 | 35038 ft | 523 kts | 134° |
| 2026-05-08 15:19 | 29.13085 | 30.71184 | 35041 ft | 523 kts | 134° |
| 2026-05-08 15:20 | 29.08039 | 30.77169 | 35058 ft | 523 kts | 134° |
| 2026-05-08 15:20 | 29.02987 | 30.83155 | 35049 ft | 522 kts | 134° |
| 2026-05-08 15:21 | 28.97945 | 30.89119 | 35050 ft | 521 kts | 134° |
| 2026-05-08 15:21 | 28.93756 | 30.94066 | 35051 ft | 521 kts | 134° |
| 2026-05-08 15:22 | 28.88715 | 31.00013 | 35051 ft | 521 kts | 134° |
| 2026-05-08 15:22 | 28.83670 | 31.05955 | 35050 ft | 521 kts | 134° |
| 2026-05-08 15:23 | 28.78614 | 31.11880 | 35047 ft | 521 kts | 134° |
| 2026-05-08 15:23 | 28.73553 | 31.17801 | 35048 ft | 521 kts | 134° |
| 2026-05-08 15:24 | 28.68544 | 31.23778 | 35038 ft | 521 kts | 132° |
| 2026-05-08 15:24 | 28.63691 | 31.29898 | 35045 ft | 520 kts | 131° |
| 2026-05-08 15:25 | 28.58872 | 31.36047 | 35047 ft | 520 kts | 131° |
| 2026-05-08 15:25 | 28.54038 | 31.42182 | 35051 ft | 521 kts | 131° |
| 2026-05-08 15:26 | 28.49193 | 31.48301 | 35050 ft | 521 kts | 132° |
| 2026-05-08 15:26 | 28.44342 | 31.54413 | 35046 ft | 521 kts | 131° |
| 2026-05-08 15:27 | 28.39479 | 31.60534 | 35042 ft | 522 kts | 131° |
| 2026-05-08 15:27 | 28.34614 | 31.66649 | 35034 ft | 522 kts | 132° |
| 2026-05-08 15:28 | 28.29777 | 31.72719 | 35029 ft | 521 kts | 132° |
| 2026-05-08 15:28 | 28.24937 | 31.78785 | 35023 ft | 521 kts | 132° |
| 2026-05-08 15:29 | 28.20072 | 31.84872 | 35027 ft | 521 kts | 132° |
| 2026-05-08 15:29 | 28.15197 | 31.90963 | 35018 ft | 522 kts | 132° |
| 2026-05-08 15:30 | 28.10308 | 31.97037 | 35017 ft | 522 kts | 132° |
| 2026-05-08 15:30 | 28.05420 | 32.03107 | 35016 ft | 522 kts | 132° |
| 2026-05-08 15:31 | 28.00842 | 32.09459 | 35001 ft | 521 kts | 121° |
| 2026-05-08 15:31 | 27.97303 | 32.16599 | 34999 ft | 521 kts | 115° |
| 2026-05-08 15:32 | 27.94007 | 32.23894 | 34982 ft | 521 kts | 116° |
| 2026-05-08 15:32 | 27.90626 | 32.31134 | 34939 ft | 521 kts | 117° |
| 2026-05-08 15:33 | 27.87176 | 32.38330 | 34956 ft | 521 kts | 117° |
| 2026-05-08 15:33 | 27.83706 | 32.45517 | 34944 ft | 521 kts | 117° |
| 2026-05-08 15:34 | 27.80235 | 32.52703 | 34941 ft | 521 kts | 117° |
| 2026-05-08 15:34 | 27.76786 | 32.59839 | 34941 ft | 521 kts | 117° |
| 2026-05-08 15:35 | 27.73311 | 32.67021 | 34941 ft | 521 kts | 117° |
| 2026-05-08 15:35 | 27.69829 | 32.74203 | 34936 ft | 522 kts | 117° |
| 2026-05-08 15:36 | 27.66341 | 32.81385 | 34925 ft | 522 kts | 117° |
| 2026-05-08 15:36 | 27.62850 | 32.88562 | 34925 ft | 522 kts | 117° |
| 2026-05-08 15:37 | 27.59338 | 32.95730 | 34926 ft | 523 kts | 117° |
| 2026-05-08 15:37 | 27.55819 | 33.02906 | 34925 ft | 523 kts | 117° |
| 2026-05-08 15:38 | 27.52307 | 33.10081 | 34922 ft | 523 kts | 117° |
| 2026-05-08 15:38 | 27.48792 | 33.17259 | 34930 ft | 523 kts | 117° |
| 2026-05-08 15:39 | 27.45268 | 33.24445 | 34927 ft | 524 kts | 117° |
| 2026-05-08 15:39 | 27.41737 | 33.31629 | 34924 ft | 524 kts | 117° |
| 2026-05-08 15:40 | 27.38201 | 33.38808 | 34921 ft | 525 kts | 117° |
| 2026-05-08 15:40 | 27.34651 | 33.45982 | 34910 ft | 524 kts | 117° |
| 2026-05-08 15:41 | 27.31111 | 33.53134 | 34913 ft | 523 kts | 117° |
| 2026-05-08 15:41 | 27.27573 | 33.60283 | 34914 ft | 523 kts | 117° |
| 2026-05-08 15:42 | 27.24034 | 33.67424 | 34916 ft | 523 kts | 117° |
| 2026-05-08 15:42 | 27.20490 | 33.74563 | 34912 ft | 524 kts | 117° |
| 2026-05-08 15:43 | 27.17026 | 33.81765 | 34911 ft | 523 kts | 113° |
| 2026-05-08 15:43 | 27.14212 | 33.89231 | 34911 ft | 522 kts | 109° |
| 2026-05-08 15:44 | 27.11619 | 33.96837 | 34909 ft | 521 kts | 108° |
| 2026-05-08 15:44 | 27.08991 | 34.04432 | 34901 ft | 523 kts | 109° |
| 2026-05-08 15:45 | 27.06312 | 34.12015 | 34892 ft | 523 kts | 109° |
| 2026-05-08 15:45 | 27.03616 | 34.19588 | 34887 ft | 523 kts | 109° |
| 2026-05-08 15:46 | 27.00921 | 34.27110 | 34884 ft | 524 kts | 109° |
| 2026-05-08 15:46 | 26.98191 | 34.34693 | 34871 ft | 524 kts | 109° |
| 2026-05-08 15:47 | 26.95461 | 34.42273 | 34876 ft | 524 kts | 109° |
| 2026-05-08 15:47 | 26.92730 | 34.49853 | 34875 ft | 525 kts | 109° |
| 2026-05-08 15:48 | 26.88618 | 34.61240 | 34879 ft | 526 kts | 109° |
| 2026-05-08 15:49 | 26.85871 | 34.68827 | 34861 ft | 526 kts | 109° |
| 2026-05-08 15:49 | 26.83121 | 34.76409 | 34866 ft | 526 kts | 109° |
| 2026-05-08 15:50 | 26.80359 | 34.84007 | 34866 ft | 527 kts | 109° |
| 2026-05-08 15:50 | 26.77596 | 34.91591 | 34865 ft | 527 kts | 109° |
| 2026-05-08 15:51 | 26.74814 | 34.99177 | 34862 ft | 527 kts | 109° |
| 2026-05-08 15:51 | 26.72051 | 35.06711 | 34862 ft | 527 kts | 109° |
| 2026-05-08 15:52 | 26.69273 | 35.14294 | 34863 ft | 527 kts | 109° |
| 2026-05-08 15:52 | 26.66494 | 35.21876 | 34863 ft | 527 kts | 109° |
| 2026-05-08 15:53 | 26.63709 | 35.29459 | 34860 ft | 528 kts | 109° |
| 2026-05-08 15:53 | 26.60897 | 35.37100 | 34855 ft | 528 kts | 109° |
| 2026-05-08 15:54 | 26.58116 | 35.44637 | 34858 ft | 528 kts | 109° |
| 2026-05-08 15:54 | 26.55283 | 35.52213 | 34854 ft | 529 kts | 109° |
| 2026-05-08 15:55 | 26.52403 | 35.59783 | 34850 ft | 530 kts | 109° |
| 2026-05-08 15:55 | 26.48077 | 35.71143 | 34851 ft | 530 kts | 109° |
| 2026-05-08 15:56 | 26.45193 | 35.78717 | 34846 ft | 531 kts | 109° |
| 2026-05-08 15:56 | 26.42306 | 35.86287 | 34850 ft | 530 kts | 110° |
| 2026-05-08 15:57 | 26.39418 | 35.93844 | 34859 ft | 530 kts | 110° |
| 2026-05-08 15:57 | 26.36526 | 36.01395 | 34861 ft | 530 kts | 110° |
| 2026-05-08 15:58 | 26.33631 | 36.08944 | 34856 ft | 529 kts | 110° |
| 2026-05-08 15:58 | 26.30743 | 36.16456 | 34848 ft | 529 kts | 110° |
| 2026-05-08 15:59 | 26.27840 | 36.23996 | 34853 ft | 529 kts | 110° |
| 2026-05-08 15:59 | 26.24932 | 36.31535 | 34858 ft | 530 kts | 110° |
| 2026-05-08 16:00 | 26.22000 | 36.39076 | 34864 ft | 531 kts | 110° |
| 2026-05-08 16:00 | 26.19164 | 36.46651 | 34849 ft | 528 kts | 105° |
| 2026-05-08 16:01 | 26.17834 | 36.54574 | 34864 ft | 517 kts | 86° |
| 2026-05-08 16:01 | 26.18568 | 36.62405 | 34855 ft | 505 kts | 72° |
| 2026-05-08 16:02 | 26.19993 | 36.70072 | 34874 ft | 507 kts | 74° |
| 2026-05-08 16:02 | 26.21051 | 36.77858 | 34871 ft | 510 kts | 77° |
| 2026-05-08 16:03 | 26.21846 | 36.85658 | 34861 ft | 511 kts | 78° |
| 2026-05-08 16:03 | 26.22592 | 36.93528 | 34874 ft | 511 kts | 78° |
| 2026-05-08 16:04 | 26.23349 | 37.01401 | 34881 ft | 511 kts | 78° |
| 2026-05-08 16:04 | 26.24115 | 37.09281 | 34888 ft | 512 kts | 78° |
| 2026-05-08 16:05 | 26.24879 | 37.17159 | 34902 ft | 512 kts | 78° |
| 2026-05-08 16:05 | 26.25639 | 37.25050 | 34907 ft | 512 kts | 78° |
| 2026-05-08 16:06 | 26.26393 | 37.32935 | 34914 ft | 511 kts | 78° |
| 2026-05-08 16:06 | 26.27141 | 37.40799 | 34918 ft | 510 kts | 78° |
| 2026-05-08 16:07 | 26.27874 | 37.48658 | 34928 ft | 510 kts | 78° |
| 2026-05-08 16:07 | 26.28597 | 37.56535 | 34922 ft | 511 kts | 79° |
| 2026-05-08 16:08 | 26.29327 | 37.64413 | 34915 ft | 511 kts | 78° |
| 2026-05-08 16:08 | 26.30059 | 37.72292 | 34915 ft | 512 kts | 79° |
| 2026-05-08 16:09 | 26.30668 | 37.78861 | 34905 ft | 513 kts | 79° |
| 2026-05-08 16:09 | 26.31517 | 37.88115 | 34890 ft | 514 kts | 79° |
| 2026-05-08 16:10 | 26.32116 | 37.94691 | 34889 ft | 511 kts | 78° |
| 2026-05-08 16:10 | 26.32832 | 38.02581 | 34885 ft | 512 kts | 79° |
| 2026-05-08 16:11 | 26.33545 | 38.10478 | 34888 ft | 512 kts | 79° |
| 2026-05-08 16:11 | 26.34368 | 38.19660 | 34892 ft | 512 kts | 79° |
| 2026-05-08 16:12 | 26.34959 | 38.26288 | 34888 ft | 513 kts | 79° |
| 2026-05-08 16:12 | 26.35659 | 38.34210 | 34897 ft | 513 kts | 79° |
| 2026-05-08 16:13 | 26.36341 | 38.42136 | 34909 ft | 514 kts | 79° |
| 2026-05-08 16:13 | 26.37014 | 38.50030 | 34947 ft | 513 kts | 79° |
| 2026-05-08 16:14 | 26.37690 | 38.57876 | 34924 ft | 511 kts | 79° |
| 2026-05-08 16:14 | 26.38371 | 38.65763 | 34937 ft | 511 kts | 79° |
| 2026-05-08 16:15 | 26.39050 | 38.73667 | 34940 ft | 513 kts | 79° |
| 2026-05-08 16:15 | 26.39724 | 38.81581 | 34947 ft | 513 kts | 79° |
| 2026-05-08 16:16 | 26.40394 | 38.89501 | 34956 ft | 513 kts | 79° |
| 2026-05-08 16:16 | 26.41063 | 38.97439 | 34949 ft | 515 kts | 80° |
| 2026-05-08 16:17 | 26.41726 | 39.05400 | 34950 ft | 515 kts | 80° |
| 2026-05-08 16:17 | 26.42384 | 39.13353 | 34956 ft | 514 kts | 81° |
| 2026-05-08 16:18 | 26.43041 | 39.21318 | 34956 ft | 516 kts | 81° |
| 2026-05-08 16:18 | 26.43662 | 39.29306 | 34945 ft | 517 kts | 82° |
| 2026-05-08 16:19 | 26.44195 | 39.37310 | 34945 ft | 518 kts | 83° |
| 2026-05-08 16:19 | 26.44720 | 39.45343 | 34952 ft | 519 kts | 83° |
| 2026-05-08 16:20 | 26.45248 | 39.53326 | 34948 ft | 520 kts | 83° |
| 2026-05-08 16:20 | 26.45783 | 39.61365 | 34955 ft | 520 kts | 84° |
| 2026-05-08 16:21 | 26.46314 | 39.69428 | 34964 ft | 521 kts | 84° |
| 2026-05-08 16:21 | 26.46838 | 39.77473 | 34956 ft | 519 kts | 84° |
| 2026-05-08 16:22 | 26.47359 | 39.85519 | 34966 ft | 520 kts | 85° |
| 2026-05-08 16:22 | 26.47878 | 39.93627 | 34966 ft | 521 kts | 85° |
| 2026-05-08 16:23 | 26.48389 | 40.01690 | 34964 ft | 521 kts | 85° |
| 2026-05-08 16:23 | 26.48899 | 40.09770 | 34967 ft | 523 kts | 86° |
| 2026-05-08 16:24 | 26.49402 | 40.17864 | 34966 ft | 523 kts | 86° |
| 2026-05-08 16:24 | 26.49883 | 40.25963 | 34940 ft | 523 kts | 87° |
| 2026-05-08 16:25 | 26.50366 | 40.34068 | 34951 ft | 523 kts | 87° |
| 2026-05-08 16:25 | 26.50850 | 40.42104 | 34950 ft | 522 kts | 87° |
| 2026-05-08 16:26 | 26.51337 | 40.50198 | 34955 ft | 523 kts | 88° |
| 2026-05-08 16:26 | 26.51821 | 40.58319 | 34959 ft | 525 kts | 88° |
| 2026-05-08 16:27 | 26.52300 | 40.66450 | 34955 ft | 525 kts | 88° |
| 2026-05-08 16:27 | 26.52774 | 40.74585 | 34961 ft | 525 kts | 88° |
| 2026-05-08 16:28 | 26.53244 | 40.82720 | 34954 ft | 525 kts | 88° |
| 2026-05-08 16:28 | 26.53707 | 40.90817 | 34961 ft | 525 kts | 88° |
| 2026-05-08 16:29 | 26.54170 | 40.98993 | 34962 ft | 530 kts | 89° |
| 2026-05-08 16:29 | 26.54630 | 41.07209 | 34961 ft | 530 kts | 89° |
| 2026-05-08 16:30 | 26.55076 | 41.15430 | 34954 ft | 531 kts | 90° |
| 2026-05-08 16:30 | 26.55510 | 41.23677 | 34964 ft | 532 kts | 90° |
| 2026-05-08 16:31 | 26.55951 | 41.31931 | 34961 ft | 532 kts | 90° |
| 2026-05-08 16:31 | 26.56395 | 41.40204 | 34969 ft | 536 kts | 91° |
| 2026-05-08 16:32 | 26.56834 | 41.48436 | 34966 ft | 533 kts | 91° |
| 2026-05-08 16:32 | 26.57269 | 41.56704 | 34956 ft | 533 kts | 91° |
| 2026-05-08 16:33 | 26.57699 | 41.65012 | 34976 ft | 538 kts | 92° |
| 2026-05-08 16:33 | 26.58127 | 41.73356 | 34983 ft | 538 kts | 92° |
| 2026-05-08 16:34 | 26.58553 | 41.81711 | 34979 ft | 539 kts | 92° |
| 2026-05-08 16:34 | 26.58973 | 41.90080 | 34996 ft | 540 kts | 92° |
| 2026-05-08 16:35 | 26.59388 | 41.98451 | 35025 ft | 540 kts | 92° |
| 2026-05-08 16:35 | 26.59792 | 42.06797 | 35004 ft | 537 kts | 93° |
| 2026-05-08 16:36 | 26.60174 | 42.15133 | 35016 ft | 537 kts | 93° |
| 2026-05-08 16:36 | 26.60564 | 42.23474 | 35010 ft | 538 kts | 93° |
| 2026-05-08 16:37 | 26.60958 | 42.31835 | 35024 ft | 539 kts | 93° |
| 2026-05-08 16:37 | 26.61349 | 42.40199 | 35030 ft | 539 kts | 93° |
| 2026-05-08 16:38 | 26.61735 | 42.48579 | 35027 ft | 541 kts | 93° |
| 2026-05-08 16:38 | 26.62118 | 42.56966 | 35038 ft | 539 kts | 94° |
| 2026-05-08 16:39 | 26.62494 | 42.65317 | 35026 ft | 538 kts | 94° |
| 2026-05-08 16:39 | 26.62860 | 42.73627 | 35034 ft | 539 kts | 94° |
| 2026-05-08 16:40 | 26.63225 | 42.81992 | 35044 ft | 539 kts | 94° |
| 2026-05-08 16:40 | 26.63586 | 42.90360 | 35046 ft | 539 kts | 94° |
| 2026-05-08 16:41 | 26.63937 | 42.98729 | 35047 ft | 539 kts | 94° |
| 2026-05-08 16:42 | 26.64434 | 43.11297 | 35064 ft | 540 kts | 94° |
| 2026-05-08 16:42 | 26.64985 | 43.19685 | 35063 ft | 543 kts | 91° |
| 2026-05-08 16:43 | 26.65797 | 43.28091 | 35054 ft | 545 kts | 90° |
| 2026-05-08 16:43 | 26.66632 | 43.36478 | 35062 ft | 546 kts | 90° |
| 2026-05-08 16:44 | 26.67438 | 43.44915 | 35055 ft | 546 kts | 90° |
| 2026-05-08 16:44 | 26.68224 | 43.53374 | 35061 ft | 547 kts | 91° |
| 2026-05-08 16:45 | 26.69004 | 43.61811 | 35061 ft | 544 kts | 91° |
| 2026-05-08 16:45 | 26.69777 | 43.70248 | 35051 ft | 548 kts | 91° |
| 2026-05-08 16:46 | 26.70549 | 43.78728 | 35057 ft | 549 kts | 91° |
| 2026-05-08 16:46 | 26.71321 | 43.87225 | 35053 ft | 551 kts | 91° |
| 2026-05-08 16:47 | 26.72090 | 43.95771 | 35058 ft | 553 kts | 91° |
| 2026-05-08 16:47 | 26.72855 | 44.04308 | 35055 ft | 551 kts | 91° |
| 2026-05-08 16:48 | 26.73592 | 44.12776 | 35063 ft | 550 kts | 91° |
| 2026-05-08 16:48 | 26.74326 | 44.21287 | 35070 ft | 550 kts | 91° |
| 2026-05-08 16:49 | 26.75069 | 44.29819 | 35070 ft | 552 kts | 92° |
| 2026-05-08 16:49 | 26.75814 | 44.38377 | 35083 ft | 553 kts | 92° |
| 2026-05-08 16:50 | 26.76555 | 44.46942 | 35099 ft | 553 kts | 92° |
| 2026-05-08 16:50 | 26.77290 | 44.55490 | 35090 ft | 551 kts | 92° |
| 2026-05-08 16:51 | 26.78018 | 44.64036 | 35083 ft | 552 kts | 92° |
| 2026-05-08 16:51 | 26.78739 | 44.72586 | 35088 ft | 552 kts | 92° |
| 2026-05-08 16:52 | 26.79458 | 44.81148 | 35091 ft | 552 kts | 92° |
| 2026-05-08 16:52 | 26.80172 | 44.89709 | 35085 ft | 552 kts | 92° |
| 2026-05-08 16:53 | 26.81222 | 45.02534 | 35086 ft | 552 kts | 92° |
| 2026-05-08 16:53 | 26.81900 | 45.11099 | 35085 ft | 553 kts | 92° |
| 2026-05-08 16:54 | 26.82589 | 45.19690 | 35078 ft | 556 kts | 92° |
| 2026-05-08 16:54 | 26.83284 | 45.28322 | 35077 ft | 557 kts | 92° |
| 2026-05-08 16:55 | 26.83979 | 45.36965 | 35072 ft | 557 kts | 92° |
| 2026-05-08 16:55 | 26.84665 | 45.45613 | 35068 ft | 559 kts | 92° |
| 2026-05-08 16:56 | 26.85343 | 45.54231 | 35056 ft | 559 kts | 92° |
| 2026-05-08 16:56 | 26.86021 | 45.62918 | 35048 ft | 561 kts | 92° |
| 2026-05-08 16:57 | 26.86695 | 45.71622 | 35042 ft | 561 kts | 92° |
| 2026-05-08 16:57 | 26.87364 | 45.80316 | 35035 ft | 561 kts | 92° |
| 2026-05-08 16:58 | 26.88028 | 45.89026 | 35026 ft | 561 kts | 92° |
| 2026-05-08 16:58 | 26.88667 | 45.97685 | 35011 ft | 560 kts | 92° |
| 2026-05-08 16:59 | 26.89302 | 46.06361 | 35017 ft | 557 kts | 92° |
| 2026-05-08 16:59 | 26.89940 | 46.15011 | 35018 ft | 557 kts | 92° |
| 2026-05-08 17:00 | 26.90577 | 46.23653 | 35014 ft | 556 kts | 92° |
| 2026-05-08 17:00 | 26.91102 | 46.30825 | 35009 ft | 556 kts | 92° |
| 2026-05-08 17:01 | 26.91741 | 46.39461 | 35001 ft | 556 kts | 92° |
| 2026-05-08 17:01 | 26.92500 | 46.48092 | 35004 ft | 557 kts | 91° |
| 2026-05-08 17:02 | 26.93321 | 46.56718 | 34995 ft | 555 kts | 91° |
| 2026-05-08 17:02 | 26.94133 | 46.65293 | 34995 ft | 552 kts | 91° |
| 2026-05-08 17:03 | 26.94925 | 46.73851 | 34992 ft | 552 kts | 91° |
| 2026-05-08 17:03 | 26.95708 | 46.82412 | 34995 ft | 552 kts | 91° |
| 2026-05-08 17:04 | 26.96487 | 46.90972 | 34998 ft | 552 kts | 91° |
| 2026-05-08 17:04 | 26.97261 | 46.99534 | 34990 ft | 552 kts | 91° |
| 2026-05-08 17:05 | 26.98030 | 47.08087 | 34987 ft | 551 kts | 91° |
| 2026-05-08 17:05 | 26.98793 | 47.16641 | 34987 ft | 551 kts | 91° |
| 2026-05-08 17:06 | 26.99551 | 47.25190 | 34989 ft | 551 kts | 91° |
| 2026-05-08 17:06 | 27.00296 | 47.33729 | 34983 ft | 549 kts | 91° |
| 2026-05-08 17:07 | 27.01014 | 47.42178 | 34979 ft | 546 kts | 91° |
| 2026-05-08 17:07 | 27.01741 | 47.50647 | 34991 ft | 545 kts | 91° |
| 2026-05-08 17:08 | 27.02468 | 47.59106 | 34978 ft | 545 kts | 91° |
| 2026-05-08 17:08 | 27.03192 | 47.67565 | 34975 ft | 545 kts | 91° |
| 2026-05-08 17:09 | 27.03911 | 47.76023 | 34970 ft | 544 kts | 91° |
| 2026-05-08 17:09 | 27.04623 | 47.84473 | 34973 ft | 543 kts | 91° |
| 2026-05-08 17:10 | 27.05329 | 47.92901 | 34966 ft | 543 kts | 91° |
| 2026-05-08 17:10 | 27.05663 | 48.01311 | 34956 ft | 536 kts | 97° |
| 2026-05-08 17:11 | 27.05430 | 48.09645 | 34949 ft | 533 kts | 99° |
| 2026-05-08 17:11 | 27.05125 | 48.17950 | 34956 ft | 533 kts | 98° |
| 2026-05-08 17:12 | 27.04873 | 48.26262 | 34947 ft | 534 kts | 98° |
| 2026-05-08 17:12 | 27.04646 | 48.34606 | 34947 ft | 535 kts | 98° |
| 2026-05-08 17:13 | 27.04419 | 48.42948 | 34941 ft | 535 kts | 98° |
| 2026-05-08 17:13 | 27.04185 | 48.51263 | 34936 ft | 537 kts | 99° |
| 2026-05-08 17:14 | 27.03943 | 48.59632 | 34928 ft | 537 kts | 99° |
| 2026-05-08 17:14 | 27.03696 | 48.68000 | 34916 ft | 537 kts | 99° |
| 2026-05-08 17:15 | 27.03443 | 48.76376 | 34919 ft | 538 kts | 99° |
| 2026-05-08 17:15 | 27.03185 | 48.84759 | 34917 ft | 538 kts | 99° |
| 2026-05-08 17:16 | 27.02913 | 48.93139 | 34911 ft | 537 kts | 99° |
| 2026-05-08 17:16 | 27.02626 | 49.01514 | 34912 ft | 537 kts | 99° |
| 2026-05-08 17:17 | 27.02346 | 49.09885 | 34903 ft | 537 kts | 99° |
| 2026-05-08 17:17 | 27.02070 | 49.18208 | 34903 ft | 538 kts | 99° |
| 2026-05-08 17:18 | 27.01788 | 49.26585 | 34897 ft | 538 kts | 99° |
| 2026-05-08 17:18 | 27.01501 | 49.34967 | 34895 ft | 538 kts | 99° |
| 2026-05-08 17:19 | 27.01252 | 49.43346 | 34892 ft | 538 kts | 98° |
| 2026-05-08 17:19 | 27.01168 | 49.51752 | 34885 ft | 539 kts | 97° |
| 2026-05-08 17:20 | 27.01134 | 49.60157 | 34884 ft | 539 kts | 97° |
| 2026-05-08 17:20 | 27.01088 | 49.68560 | 34885 ft | 539 kts | 97° |
| 2026-05-08 17:21 | 27.01025 | 49.76954 | 34895 ft | 538 kts | 97° |
| 2026-05-08 17:21 | 27.00955 | 49.85344 | 34909 ft | 538 kts | 97° |
| 2026-05-08 17:22 | 27.00880 | 49.93728 | 34905 ft | 537 kts | 97° |
| 2026-05-08 17:22 | 27.00800 | 50.02106 | 34908 ft | 537 kts | 97° |
| 2026-05-08 17:23 | 27.00716 | 50.10470 | 34908 ft | 536 kts | 97° |
| 2026-05-08 17:23 | 27.00627 | 50.18834 | 34911 ft | 536 kts | 97° |
| 2026-05-08 17:24 | 27.00533 | 50.27192 | 34910 ft | 536 kts | 97° |
| 2026-05-08 17:24 | 27.00430 | 50.35485 | 34908 ft | 535 kts | 97° |
| 2026-05-08 17:25 | 27.00305 | 50.43832 | 34894 ft | 535 kts | 97° |
| 2026-05-08 17:25 | 27.00186 | 50.52174 | 34901 ft | 535 kts | 97° |
| 2026-05-08 17:26 | 27.00072 | 50.60509 | 34899 ft | 534 kts | 97° |
| 2026-05-08 17:26 | 26.99955 | 50.68839 | 34897 ft | 534 kts | 97° |
| 2026-05-08 17:27 | 26.99832 | 50.77161 | 34894 ft | 534 kts | 97° |
| 2026-05-08 17:27 | 26.99704 | 50.85481 | 34894 ft | 534 kts | 97° |
| 2026-05-08 17:28 | 26.99571 | 50.93799 | 34891 ft | 533 kts | 97° |
| 2026-05-08 17:28 | 26.99335 | 51.02053 | 34885 ft | 529 kts | 102° |
| 2026-05-08 17:29 | 26.97650 | 51.09915 | 34884 ft | 511 kts | 119° |
| 2026-05-08 17:29 | 26.94415 | 51.16898 | 34878 ft | 502 kts | 127° |
| 2026-05-08 17:30 | 26.90988 | 51.23735 | 34883 ft | 505 kts | 125° |
| 2026-05-08 17:30 | 26.87783 | 51.30750 | 34883 ft | 507 kts | 123° |
| 2026-05-08 17:31 | 26.84691 | 51.37850 | 34868 ft | 507 kts | 123° |
| 2026-05-08 17:31 | 26.81610 | 51.44958 | 34866 ft | 507 kts | 123° |
| 2026-05-08 17:32 | 26.78517 | 51.52052 | 34872 ft | 507 kts | 123° |
| 2026-05-08 17:32 | 26.75412 | 51.59145 | 34860 ft | 507 kts | 123° |
| 2026-05-08 17:33 | 26.72300 | 51.66235 | 34864 ft | 508 kts | 123° |
| 2026-05-08 17:33 | 26.69207 | 51.73273 | 34864 ft | 508 kts | 123° |
| 2026-05-08 17:34 | 26.66089 | 51.80357 | 34863 ft | 508 kts | 123° |
| 2026-05-08 17:34 | 26.62964 | 51.87444 | 34859 ft | 509 kts | 122° |
| 2026-05-08 17:35 | 26.59822 | 51.94528 | 34859 ft | 509 kts | 123° |
| 2026-05-08 17:35 | 26.56673 | 52.01606 | 34854 ft | 509 kts | 123° |
| 2026-05-08 17:36 | 26.53529 | 52.08689 | 34853 ft | 509 kts | 122° |
| 2026-05-08 17:36 | 26.50388 | 52.15769 | 34856 ft | 509 kts | 122° |
| 2026-05-08 17:37 | 26.47243 | 52.22844 | 34845 ft | 509 kts | 122° |
| 2026-05-08 17:37 | 26.44093 | 52.29918 | 34835 ft | 509 kts | 122° |
| 2026-05-08 17:38 | 26.40940 | 52.36987 | 34850 ft | 509 kts | 122° |
| 2026-05-08 17:38 | 26.37784 | 52.44051 | 34858 ft | 509 kts | 122° |
| 2026-05-08 17:39 | 26.34627 | 52.51104 | 34842 ft | 508 kts | 122° |
| 2026-05-08 17:39 | 26.31469 | 52.58148 | 34834 ft | 508 kts | 122° |
| 2026-05-08 17:40 | 26.28305 | 52.65194 | 34836 ft | 508 kts | 122° |
| 2026-05-08 17:40 | 26.25139 | 52.72232 | 34823 ft | 508 kts | 122° |
| 2026-05-08 17:41 | 26.21964 | 52.79239 | 34822 ft | 508 kts | 122° |
| 2026-05-08 17:41 | 26.18784 | 52.86255 | 34824 ft | 508 kts | 122° |
| 2026-05-08 17:42 | 26.15612 | 52.93268 | 34576 ft | 501 kts | 122° |
| 2026-05-08 17:42 | 26.14058 | 52.96712 | 33041 ft | 500 kts | 122° |
| 2026-05-08 17:42 | 26.12517 | 53.00113 | 32027 ft | 503 kts | 122° |
| 2026-05-08 17:43 | 26.10936 | 53.03610 | 31068 ft | 507 kts | 121° |
| 2026-05-08 17:43 | 26.09618 | 53.07288 | 30118 ft | 517 kts | 111° |
| 2026-05-08 17:43 | 26.08755 | 53.11153 | 29100 ft | 523 kts | 105° |
| 2026-05-08 17:43 | 26.08139 | 53.15150 | 28068 ft | 525 kts | 102° |
| 2026-05-08 17:44 | 26.07620 | 53.19173 | 27075 ft | 526 kts | 101° |
| 2026-05-08 17:44 | 26.07107 | 53.23181 | 26240 ft | 520 kts | 101° |
| 2026-05-08 17:44 | 26.06569 | 53.27132 | 25418 ft | 513 kts | 102° |
| 2026-05-08 17:44 | 26.06004 | 53.31015 | 24619 ft | 505 kts | 102° |
| 2026-05-08 17:45 | 26.05421 | 53.34833 | 23846 ft | 497 kts | 103° |
| 2026-05-08 17:45 | 26.04832 | 53.38587 | 23020 ft | 489 kts | 103° |
| 2026-05-08 17:45 | 26.04246 | 53.42281 | 22115 ft | 481 kts | 103° |
| 2026-05-08 17:45 | 26.03668 | 53.45914 | 21259 ft | 473 kts | 103° |
| 2026-05-08 17:46 | 26.03100 | 53.49481 | 20408 ft | 465 kts | 102° |
| 2026-05-08 17:46 | 26.02543 | 53.52988 | 19619 ft | 457 kts | 102° |
| 2026-05-08 17:46 | 26.01995 | 53.56437 | 18926 ft | 450 kts | 102° |
| 2026-05-08 17:46 | 26.01454 | 53.59832 | 18254 ft | 443 kts | 102° |
| 2026-05-08 17:47 | 26.00922 | 53.63176 | 17512 ft | 436 kts | 103° |
| 2026-05-08 17:47 | 26.00396 | 53.66474 | 16758 ft | 431 kts | 103° |
| 2026-05-08 17:47 | 25.99873 | 53.69746 | 16021 ft | 428 kts | 103° |
| 2026-05-08 17:47 | 25.99531 | 53.71891 | 15548 ft | 425 kts | 103° |
| 2026-05-08 17:48 | 25.98842 | 53.76194 | 14599 ft | 420 kts | 103° |
| 2026-05-08 17:48 | 25.98331 | 53.79374 | 14173 ft | 417 kts | 103° |
| 2026-05-08 17:48 | 25.97993 | 53.81477 | 14024 ft | 416 kts | 103° |
| 2026-05-08 17:48 | 25.97313 | 53.85706 | 13718 ft | 415 kts | 103° |
| 2026-05-08 17:49 | 25.96976 | 53.87796 | 13563 ft | 414 kts | 103° |
| 2026-05-08 17:49 | 25.96468 | 53.90943 | 13309 ft | 413 kts | 103° |
| 2026-05-08 17:49 | 25.95962 | 53.94077 | 13049 ft | 412 kts | 103° |
| 2026-05-08 17:49 | 25.95454 | 53.97207 | 12807 ft | 411 kts | 103° |
| 2026-05-08 17:50 | 25.94940 | 54.00327 | 12544 ft | 410 kts | 103° |
| 2026-05-08 17:50 | 25.94426 | 54.03438 | 12304 ft | 409 kts | 103° |
| 2026-05-08 17:50 | 25.93915 | 54.06544 | 12049 ft | 408 kts | 103° |
| 2026-05-08 17:50 | 25.93406 | 54.09647 | 11814 ft | 408 kts | 103° |
| 2026-05-08 17:51 | 25.92900 | 54.12743 | 11578 ft | 407 kts | 102° |
| 2026-05-08 17:51 | 25.92396 | 54.15833 | 11333 ft | 406 kts | 102° |
| 2026-05-08 17:51 | 25.91893 | 54.18914 | 11097 ft | 405 kts | 102° |
| 2026-05-08 17:51 | 25.91391 | 54.21986 | 10862 ft | 404 kts | 102° |
| 2026-05-08 17:52 | 25.90889 | 54.25054 | 10623 ft | 403 kts | 102° |
| 2026-05-08 17:52 | 25.90388 | 54.28114 | 10374 ft | 403 kts | 102° |
| 2026-05-08 17:52 | 25.89393 | 54.34180 | 9662 ft | 386 kts | 102° |
| 2026-05-08 17:53 | 25.88928 | 54.37024 | 9286 ft | 361 kts | 103° |
| 2026-05-08 17:53 | 25.88366 | 54.39655 | 8920 ft | 341 kts | 108° |
| 2026-05-08 17:53 | 25.87669 | 54.42110 | 8544 ft | 325 kts | 111° |
| 2026-05-08 17:53 | 25.86946 | 54.44437 | 8188 ft | 313 kts | 111° |
| 2026-05-08 17:54 | 25.86235 | 54.46679 | 7832 ft | 303 kts | 112° |
| 2026-05-08 17:54 | 25.85549 | 54.48837 | 7490 ft | 299 kts | 111° |
| 2026-05-08 17:54 | 25.84862 | 54.51004 | 7133 ft | 296 kts | 111° |
| 2026-05-08 17:54 | 25.84185 | 54.53152 | 6790 ft | 294 kts | 111° |
| 2026-05-08 17:55 | 25.83513 | 54.55287 | 6451 ft | 292 kts | 110° |
| 2026-05-08 17:55 | 25.82779 | 54.57381 | 6085 ft | 291 kts | 116° |
| 2026-05-08 17:55 | 25.81838 | 54.59358 | 5730 ft | 289 kts | 120° |
| 2026-05-08 17:55 | 25.80839 | 54.61291 | 5376 ft | 287 kts | 121° |
| 2026-05-08 17:56 | 25.79839 | 54.63221 | 5032 ft | 290 kts | 120° |
| 2026-05-08 17:56 | 25.78842 | 54.65162 | 4682 ft | 290 kts | 120° |
| 2026-05-08 17:56 | 25.77849 | 54.67117 | 4326 ft | 290 kts | 119° |
| 2026-05-08 17:56 | 25.76868 | 54.69063 | 4032 ft | 288 kts | 120° |
| 2026-05-08 17:57 | 25.75890 | 54.71013 | 3844 ft | 290 kts | 120° |
| 2026-05-08 17:57 | 25.74913 | 54.72966 | 3653 ft | 289 kts | 120° |
| 2026-05-08 17:57 | 25.73941 | 54.74913 | 3475 ft | 289 kts | 120° |
| 2026-05-08 17:57 | 25.72969 | 54.76861 | 3293 ft | 287 kts | 120° |
| 2026-05-08 17:58 | 25.72005 | 54.78792 | 3098 ft | 286 kts | 120° |
| 2026-05-08 17:58 | 25.71037 | 54.80732 | 2915 ft | 288 kts | 120° |
| 2026-05-08 17:58 | 25.70075 | 54.82661 | 2726 ft | 288 kts | 120° |
| 2026-05-08 17:58 | 25.69107 | 54.84602 | 2541 ft | 288 kts | 120° |
| 2026-05-08 17:59 | 25.68135 | 54.86549 | 2353 ft | 289 kts | 120° |
| 2026-05-08 17:59 | 25.67165 | 54.88494 | 2208 ft | 287 kts | 120° |
| 2026-05-08 17:59 | 25.66197 | 54.90431 | 2092 ft | 287 kts | 120° |
| 2026-05-08 17:59 | 25.65233 | 54.92361 | 2025 ft | 285 kts | 121° |
| 2026-05-08 18:00 | 25.64274 | 54.94277 | 2018 ft | 284 kts | 120° |
| 2026-05-08 18:00 | 25.62363 | 54.98092 | 2016 ft | 286 kts | 120° |
| 2026-05-08 18:00 | 25.61395 | 55.00026 | 2021 ft | 287 kts | 119° |
| 2026-05-08 18:01 | 25.60430 | 55.01952 | 2018 ft | 286 kts | 120° |
| 2026-05-08 18:01 | 25.59468 | 55.03873 | 2015 ft | 285 kts | 119° |
| 2026-05-08 18:01 | 25.58505 | 55.05796 | 2015 ft | 286 kts | 120° |
| 2026-05-08 18:01 | 25.57536 | 55.07729 | 2006 ft | 287 kts | 120° |
| 2026-05-08 18:02 | 25.56566 | 55.09664 | 2007 ft | 287 kts | 120° |
| 2026-05-08 18:02 | 25.55911 | 55.10968 | 2006 ft | 286 kts | 119° |
| 2026-05-08 18:02 | 25.54635 | 55.13512 | 2004 ft | 285 kts | 120° |
| 2026-05-08 18:02 | 25.53669 | 55.15436 | 2008 ft | 286 kts | 120° |
| 2026-05-08 18:03 | 25.52701 | 55.17362 | 2000 ft | 286 kts | 120° |
| 2026-05-08 18:03 | 25.51733 | 55.19285 | 2002 ft | 287 kts | 120° |
| 2026-05-08 18:03 | 25.50715 | 55.21188 | 1998 ft | 287 kts | 122° |
| 2026-05-08 18:03 | 25.49658 | 55.23062 | 1999 ft | 287 kts | 123° |
| 2026-05-08 18:04 | 25.48593 | 55.24928 | 1998 ft | 286 kts | 123° |
| 2026-05-08 18:04 | 25.47529 | 55.26789 | 2008 ft | 286 kts | 123° |
| 2026-05-08 18:04 | 25.46466 | 55.28648 | 2009 ft | 286 kts | 123° |
| 2026-05-08 18:04 | 25.45404 | 55.30508 | 2009 ft | 285 kts | 123° |
| 2026-05-08 18:05 | 25.44376 | 55.32309 | 2003 ft | 268 kts | 123° |
| 2026-05-08 18:05 | 25.43407 | 55.34005 | 2001 ft | 256 kts | 123° |
| 2026-05-08 18:05 | 25.42457 | 55.35659 | 2008 ft | 254 kts | 123° |
| 2026-05-08 18:05 | 25.41509 | 55.37307 | 2012 ft | 254 kts | 123° |
| 2026-05-08 18:06 | 25.40573 | 55.38936 | 2041 ft | 241 kts | 123° |
| 2026-05-08 18:06 | 25.39707 | 55.40443 | 2036 ft | 225 kts | 123° |
| 2026-05-08 18:06 | 25.38883 | 55.41876 | 2034 ft | 217 kts | 123° |
| 2026-05-08 18:06 | 25.38074 | 55.43282 | 1920 ft | 215 kts | 123° |
| 2026-05-08 18:07 | 25.37039 | 55.44439 | 1940 ft | 216 kts | 154° |
| 2026-05-08 18:07 | 25.35610 | 55.44822 | 2032 ft | 211 kts | 188° |
| 2026-05-08 18:07 | 25.34244 | 55.44333 | 1949 ft | 208 kts | 218° |
| 2026-05-08 18:07 | 25.33335 | 55.43213 | 1863 ft | 189 kts | 247° |
| 2026-05-08 18:08 | 25.33097 | 55.41848 | 1596 ft | 183 kts | 278° |
| 2026-05-08 18:08 | 25.33561 | 55.40652 | 1434 ft | 165 kts | 310° |
| 2026-05-08 18:08 | 25.34507 | 55.40015 | 1244 ft | 155 kts | 347° |
| 2026-05-08 18:08 | 25.35512 | 55.40422 | 1219 ft | 163 kts | 48° |
| 2026-05-08 18:09 | 25.35742 | 55.41622 | 1085 ft | 167 kts | 93° |
| 2026-05-08 18:09 | 25.35629 | 55.42910 | 1156 ft | 162 kts | 96° |
| 2026-05-08 18:10 | 25.50130 | 55.05394 | 4832 ft | 256 kts | 0° |
| 2026-05-08 18:10 | 25.51569 | 55.05456 | 5414 ft | 178 kts | 1° |
| 2026-05-08 18:10 | 25.52776 | 55.05572 | 4828 ft | 179 kts | 4° |
| 2026-05-08 18:11 | 25.54016 | 55.05731 | 4409 ft | 185 kts | 6° |
| 2026-05-08 18:11 | 25.55262 | 55.05990 | 4497 ft | 177 kts | 9° |
| 2026-05-08 18:11 | 25.56621 | 55.06386 | 4551 ft | 225 kts | 15° |
| 2026-05-08 18:11 | 25.58221 | 55.06954 | 4548 ft | 251 kts | 16° |
| 2026-05-08 18:12 | 25.59907 | 55.07554 | 4522 ft | 257 kts | 16° |
| 2026-05-08 18:12 | 25.61612 | 55.08162 | 4491 ft | 258 kts | 16° |
| 2026-05-08 18:12 | 25.63317 | 55.08770 | 4468 ft | 257 kts | 16° |
| 2026-05-08 18:12 | 25.65019 | 55.09379 | 4437 ft | 257 kts | 16° |
| 2026-05-08 18:13 | 25.66722 | 55.09990 | 4343 ft | 257 kts | 16° |
| 2026-05-08 18:13 | 25.68420 | 55.10600 | 4231 ft | 257 kts | 16° |
| 2026-05-08 18:13 | 25.70113 | 55.11221 | 4118 ft | 256 kts | 19° |
| 2026-05-08 18:13 | 25.71603 | 55.12305 | 4033 ft | 261 kts | 46° |
| 2026-05-08 18:14 | 25.72475 | 55.14056 | 4019 ft | 262 kts | 75° |
| 2026-05-08 18:14 | 25.72509 | 55.16056 | 4015 ft | 262 kts | 104° |
| 2026-05-08 18:14 | 25.71701 | 55.17828 | 4023 ft | 259 kts | 133° |
| 2026-05-08 18:14 | 25.70252 | 55.18971 | 4020 ft | 257 kts | 158° |
| 2026-05-08 18:15 | 25.68629 | 55.19827 | 3969 ft | 259 kts | 154° |
| 2026-05-08 18:15 | 25.67070 | 55.20776 | 3748 ft | 259 kts | 152° |
| 2026-05-08 18:15 | 25.65501 | 55.21760 | 3552 ft | 259 kts | 152° |
| 2026-05-08 18:15 | 25.63931 | 55.22752 | 3335 ft | 260 kts | 152° |
| 2026-05-08 18:16 | 25.62342 | 55.23767 | 3124 ft | 260 kts | 152° |
| 2026-05-08 18:16 | 25.60796 | 55.24763 | 2918 ft | 261 kts | 152° |
| 2026-05-08 18:16 | 25.59230 | 55.25774 | 2706 ft | 260 kts | 152° |
| 2026-05-08 18:16 | 25.57668 | 55.26790 | 2507 ft | 261 kts | 153° |
| 2026-05-08 18:17 | 25.56114 | 55.27818 | 2288 ft | 260 kts | 152° |
| 2026-05-08 18:17 | 25.54564 | 55.28843 | 2124 ft | 259 kts | 152° |
| 2026-05-08 18:17 | 25.53010 | 55.29860 | 2033 ft | 260 kts | 152° |
| 2026-05-08 18:17 | 25.51454 | 55.30881 | 2022 ft | 260 kts | 152° |
| 2026-05-08 18:18 | 25.49898 | 55.31908 | 2032 ft | 260 kts | 152° |
| 2026-05-08 18:18 | 25.48339 | 55.32934 | 2031 ft | 261 kts | 152° |
| 2026-05-08 18:18 | 25.46769 | 55.33955 | 2035 ft | 262 kts | 152° |
| 2026-05-08 18:18 | 25.45198 | 55.34974 | 2036 ft | 262 kts | 152° |
| 2026-05-08 18:19 | 25.43627 | 55.35990 | 2041 ft | 262 kts | 152° |
| 2026-05-08 18:19 | 25.42205 | 55.37217 | 2034 ft | 251 kts | 133° |
| 2026-05-08 18:19 | 25.41214 | 55.38664 | 2015 ft | 225 kts | 126° |
| 2026-05-08 18:19 | 25.40385 | 55.40032 | 2033 ft | 200 kts | 125° |
| 2026-05-08 18:20 | 25.39595 | 55.41223 | 1854 ft | 186 kts | 130° |
| 2026-05-08 18:20 | 25.38792 | 55.42316 | 1641 ft | 181 kts | 129° |
| 2026-05-08 18:20 | 25.38040 | 55.43416 | 1364 ft | 178 kts | 127° |
| 2026-05-08 18:20 | 25.37327 | 55.44518 | 1176 ft | 174 kts | 127° |
| 2026-05-08 18:21 | 25.36656 | 55.45620 | 1049 ft | 171 kts | 124° |
| 2026-05-08 18:21 | 25.36016 | 55.46715 | 875 ft | 166 kts | 124° |
| 2026-05-08 18:21 | 25.35400 | 55.47769 | 712 ft | 160 kts | 123° |
| 2026-05-08 18:21 | 25.34819 | 55.48781 | 481 ft | 153 kts | 123° |
| 2026-05-08 18:22 | 25.34248 | 55.49768 | 295 ft | 151 kts | 122° |
| 2026-05-08 18:22 | 25.33694 | 55.50735 | 136 ft | 148 kts | 123° |
| 2026-05-08 18:22 | 25.33209 | 55.51575 | 123 ft | 106 kts | 122° |
| 2026-05-08 18:22 | 25.32926 | 55.52064 | 119 ft | 59 kts | 123° |
| 2026-05-08 18:23 | 25.32730 | 55.52405 | 121 ft | 49 kts | 122° |
| 2026-05-08 18:23 | 25.32596 | 55.52625 | 122 ft | 11 kts | 135° |
| 2026-05-08 18:23 | 25.32527 | 55.52655 | 123 ft | 11 kts | 175° |
| 2026-05-08 18:23 | 25.32455 | 55.52632 | 121 ft | 11 kts | 208° |
| 2026-05-08 18:24 | 25.32397 | 55.52584 | 119 ft | 8 kts | 234° |
| 2026-05-08 18:24 | 25.32399 | 55.52532 | 119 ft | 11 kts | 286° |
| 2026-05-08 18:24 | 25.32452 | 55.52431 | 121 ft | 20 kts | 302° |
| 2026-05-08 18:24 | 25.32543 | 55.52273 | 120 ft | 29 kts | 302° |
| 2026-05-08 18:25 | 25.32664 | 55.52064 | 119 ft | 33 kts | 302° |
| 2026-05-08 18:25 | 25.32784 | 55.51855 | 119 ft | 32 kts | 302° |
| 2026-05-08 18:25 | 25.32901 | 55.51653 | 120 ft | 31 kts | 303° |
| 2026-05-08 18:25 | 25.33011 | 55.51461 | 121 ft | 21 kts | 303° |
| 2026-05-08 18:26 | 25.33044 | 55.51379 | 119 ft | 8 kts | 265° |
| 2026-05-08 18:26 | 25.33017 | 55.51338 | 120 ft | 8 kts | 218° |
| 2026-05-08 18:26 | 25.32952 | 55.51290 | 120 ft | 13 kts | 213° |
| 2026-05-08 18:26 | 25.32878 | 55.51238 | 119 ft | 13 kts | 212° |
| 2026-05-08 18:27 | 25.32803 | 55.51186 | 119 ft | 13 kts | 212° |
| 2026-05-08 18:27 | 25.32756 | 55.51155 | 120 ft | 9 kts | 209° |
| 2026-05-08 18:27 | 25.32733 | 55.51116 | 119 ft | 3 kts | 264° |
| 2026-05-08 18:27 | 25.32748 | 55.51079 | 118 ft | 8 kts | 302° |
| 2026-05-08 18:28 | 25.32753 | 55.51069 | 120 ft | 0 kts | 302° |